createdAt,value
2023-02-22T00:00:19.253Z,93801.50
2023-02-22T00:05:23.228Z,93805.22
2023-02-22T00:10:27.031Z,93797.22
2023-02-22T00:15:30.066Z,93801.84
2023-02-22T00:20:33.341Z,93801.38
2023-02-22T00:25:36.994Z,93786.16
2023-02-22T00:30:40.153Z,93796.22
2023-02-22T00:35:48.416Z,93789.44
2023-02-22T00:40:52.331Z,93785.38
2023-02-22T00:45:57.509Z,93792.84
2023-02-22T00:51:01.970Z,93780.19
2023-02-22T00:56:07.096Z,93776.25
2023-02-22T01:01:11.638Z,93757.63
2023-02-22T01:06:15.386Z,93771.97
2023-02-22T01:11:19.054Z,93763.41
2023-02-22T01:16:22.465Z,93757.31
2023-02-22T01:21:25.721Z,93759.09
2023-02-22T01:26:30.305Z,93748.72
2023-02-22T01:31:33.437Z,93751.31
2023-02-22T01:36:36.962Z,93749.75
2023-02-22T01:41:40.656Z,93742.50
2023-02-22T01:46:44.657Z,93742.50
2023-02-22T01:51:53.000Z,93737.13
2023-02-22T01:57:25.018Z,93729.09
2023-02-22T02:02:29.652Z,93711.84
2023-02-22T02:07:33.699Z,93726.84
2023-02-22T02:12:37.480Z,93724.13
2023-02-22T02:17:41.653Z,93723.25
2023-02-22T02:23:08.647Z,93713.09
2023-02-22T02:28:30.589Z,93710.72
2023-02-22T02:33:35.834Z,93711.16
2023-02-22T02:38:58.414Z,93710.59
2023-02-22T02:44:18.228Z,93704.09
2023-02-22T02:49:29.474Z,93690.69
2023-02-22T02:54:33.647Z,93698.63
2023-02-22T02:59:38.163Z,93694.13
2023-02-22T03:05:07.619Z,93691.44
2023-02-22T03:10:34.414Z,93696.50
2023-02-22T03:15:59.583Z,93699.28
2023-02-22T03:21:20.002Z,93689.06
2023-02-22T03:26:33.601Z,93688.56
2023-02-22T03:31:49.565Z,93692.06
2023-02-22T03:37:04.890Z,93691.97
2023-02-22T03:42:30.126Z,93688.34
2023-02-22T03:47:42.607Z,93690.09
2023-02-22T03:52:47.796Z,93686.47
2023-02-22T03:58:01.510Z,93689.19
2023-02-22T04:03:07.216Z,93686.28
2023-02-22T04:08:10.401Z,93691.56
2023-02-22T04:13:14.904Z,93698.06
2023-02-22T04:18:22.465Z,93687.06
2023-02-22T04:23:27.269Z,93690.88
2023-02-22T04:28:31.111Z,93688.63
2023-02-22T04:33:50.648Z,93682.69
2023-02-22T04:39:00.364Z,93685.28
2023-02-22T04:44:05.660Z,93685.72
2023-02-22T04:49:09.153Z,93681.13
2023-02-22T04:54:17.968Z,93674.00
2023-02-22T04:59:23.570Z,93682.13
2023-02-22T05:04:32.474Z,93683.22
2023-02-22T05:09:35.997Z,93678.25
2023-02-22T05:14:39.652Z,93683.91
2023-02-22T05:19:43.800Z,93690.78
2023-02-22T05:24:47.085Z,93686.34
2023-02-22T05:29:50.208Z,93689.63
2023-02-22T05:34:53.734Z,93691.38
2023-02-22T05:39:56.981Z,93693.03
2023-02-22T05:45:00.853Z,93690.09
2023-02-22T05:50:04.526Z,93697.38
2023-02-22T05:55:09.465Z,93703.69
2023-02-22T06:00:20.206Z,93715.34
2023-02-22T06:05:23.632Z,93710.03
2023-02-22T06:10:27.660Z,93712.72
2023-02-22T06:15:31.646Z,93710.28
2023-02-22T06:20:35.826Z,93716.31
2023-02-22T06:25:39.918Z,93718.09
2023-02-22T06:30:43.522Z,93714.69
2023-02-22T06:35:47.218Z,93713.88
2023-02-22T06:40:50.563Z,93718.66
2023-02-22T06:45:53.781Z,93697.72
2023-02-22T06:50:57.284Z,93696.22
2023-02-22T06:56:00.625Z,93699.66
2023-02-22T07:01:04.244Z,93705.16
2023-02-22T07:06:08.829Z,93690.59
2023-02-22T07:11:12.607Z,93706.59
2023-02-22T07:16:16.247Z,93693.31
2023-02-22T07:21:19.531Z,93685.06
2023-02-22T07:26:24.353Z,93698.94
2023-02-22T07:31:29.657Z,93705.34
2023-02-22T07:36:32.835Z,93700.41
2023-02-22T07:41:35.861Z,93711.88
2023-02-22T07:46:39.066Z,93715.84
2023-02-22T07:51:42.774Z,93722.41
2023-02-22T07:56:49.386Z,93725.34
2023-02-22T08:01:53.019Z,93722.91
2023-02-22T08:06:56.978Z,93730.41
2023-02-22T08:12:00.121Z,93732.72
2023-02-22T08:17:04.505Z,93734.28
2023-02-22T08:22:08.188Z,93720.53
2023-02-22T08:27:12.157Z,93726.72
2023-02-22T08:32:16.962Z,93722.59
2023-02-22T08:37:20.651Z,93715.72
2023-02-22T08:42:24.546Z,93715.22
2023-02-22T08:47:27.713Z,93717.53
2023-02-22T08:52:31.721Z,93721.44
2023-02-22T08:57:34.852Z,93725.38
2023-02-22T09:02:38.335Z,93716.97
2023-02-22T09:07:42.801Z,93722.06
2023-02-22T09:12:46.240Z,93723.53
2023-02-22T09:17:49.610Z,93722.34
2023-02-22T09:22:54.083Z,93719.44
2023-02-22T09:27:58.645Z,93723.00
2023-02-22T09:33:05.744Z,93722.97
2023-02-22T09:38:11.710Z,93722.66
2023-02-22T09:43:38.117Z,93722.75
2023-02-22T09:49:00.680Z,93729.75
2023-02-22T09:54:06.593Z,93733.22
2023-02-22T09:59:15.959Z,93719.66
2023-02-22T10:04:42.800Z,93725.31
2023-02-22T10:09:49.870Z,93712.84
2023-02-22T10:14:58.986Z,93716.47
2023-02-22T10:20:33.448Z,93715.34
2023-02-22T10:25:39.520Z,93711.56
2023-02-22T10:30:55.036Z,93712.00
2023-02-22T10:35:58.983Z,93699.84
2023-02-22T10:41:11.340Z,93685.41
2023-02-22T10:46:19.893Z,93688.94
2023-02-22T10:51:23.999Z,93689.81
2023-02-22T10:56:28.796Z,93683.44
2023-02-22T11:01:31.975Z,93676.50
2023-02-22T11:06:38.425Z,93663.44
2023-02-22T11:11:44.346Z,93668.47
2023-02-22T11:16:53.570Z,93663.56
2023-02-22T11:22:12.917Z,93653.31
2023-02-22T11:27:31.849Z,93645.81
2023-02-22T11:32:36.789Z,93643.91
2023-02-22T11:37:40.353Z,93638.72
2023-02-22T11:42:43.839Z,93627.97
2023-02-22T11:47:52.976Z,93627.47
2023-02-22T11:53:32.375Z,93618.91
2023-02-22T11:58:47.512Z,93612.59
2023-02-22T12:04:24.100Z,93609.13
2023-02-22T12:09:33.274Z,93603.38
2023-02-22T12:14:58.311Z,93600.09
2023-02-22T12:20:10.575Z,93593.06
2023-02-22T12:25:19.996Z,93593.84
2023-02-22T12:30:29.269Z,93590.78
2023-02-22T12:35:43.252Z,93574.25
2023-02-22T12:41:14.339Z,93582.94
2023-02-22T12:46:27.676Z,93568.09
2023-02-22T12:51:42.226Z,93564.44
2023-02-22T12:56:58.637Z,93558.44
2023-02-22T13:02:13.963Z,93568.78
2023-02-22T13:07:35.225Z,93568.16
2023-02-22T13:12:42.950Z,93560.91
2023-02-22T13:18:01.754Z,93558.31
2023-02-22T13:23:19.494Z,93559.38
2023-02-22T13:28:30.962Z,93555.66
2023-02-22T13:33:53.252Z,93565.22
2023-02-22T13:39:22.135Z,93557.19
2023-02-22T13:45:04.724Z,93560.97
2023-02-22T13:50:31.258Z,93559.72
2023-02-22T13:55:37.411Z,93548.25
2023-02-22T14:00:41.197Z,93560.66
2023-02-22T14:05:45.216Z,93561.72
2023-02-22T14:10:55.864Z,93550.97
2023-02-22T14:16:02.871Z,93548.31
2023-02-22T14:21:16.199Z,93553.31
2023-02-22T14:26:31.023Z,93549.31
2023-02-22T14:31:58.442Z,93550.28
2023-02-22T14:37:10.906Z,93551.66
2023-02-22T14:42:31.122Z,93558.66
2023-02-22T14:47:44.117Z,93557.06
2023-02-22T14:52:56.827Z,93557.56
2023-02-22T14:58:19.721Z,93553.84
2023-02-22T15:03:24.334Z,93550.59
2023-02-22T15:08:28.816Z,93553.03
2023-02-22T15:13:33.366Z,93554.09
2023-02-22T15:18:43.882Z,93550.13
2023-02-22T15:23:50.957Z,93558.19
2023-02-22T15:29:00.547Z,93553.94
2023-02-22T15:34:19.360Z,93547.31
2023-02-22T15:39:27.357Z,93547.78
2023-02-22T15:44:37.081Z,93542.09
2023-02-22T15:49:40.989Z,93556.47
2023-02-22T15:54:48.327Z,93547.25
2023-02-22T15:59:56.159Z,93541.66
2023-02-22T16:05:13.614Z,93548.13
2023-02-22T16:10:30.128Z,93540.72
2023-02-22T16:15:33.899Z,93549.25
2023-02-22T16:20:39.041Z,93544.91
2023-02-22T16:25:43.027Z,93549.63
2023-02-22T16:30:58.664Z,93553.28
2023-02-22T16:36:06.707Z,93559.28
2023-02-22T16:41:09.901Z,93565.19
2023-02-22T16:46:15.116Z,93556.16
2023-02-22T16:51:26.311Z,93568.19
2023-02-22T16:56:31.281Z,93568.88
2023-02-22T17:01:35.408Z,93575.84
2023-02-22T17:06:38.605Z,93574.59
2023-02-22T17:11:42.973Z,93586.59
2023-02-22T17:16:47.404Z,93589.59
2023-02-22T17:21:51.048Z,93584.19
2023-02-22T17:26:54.626Z,93593.53
2023-02-22T17:31:57.892Z,93596.66
2023-02-22T17:37:01.076Z,93610.22
2023-02-22T17:42:04.826Z,93611.13
2023-02-22T17:47:08.119Z,93603.22
2023-02-22T17:52:15.854Z,93614.59
2023-02-22T17:57:19.373Z,93614.88
2023-02-22T18:02:22.680Z,93605.91
2023-02-22T18:07:26.809Z,93616.19
2023-02-22T18:12:30.538Z,93610.84
2023-02-22T18:17:33.904Z,93609.06
2023-02-22T18:22:42.958Z,93615.19
2023-02-22T18:27:46.721Z,93612.81
2023-02-22T18:32:50.238Z,93616.66
2023-02-22T18:37:53.939Z,93607.03
2023-02-22T18:42:57.491Z,93612.84
2023-02-22T18:48:00.628Z,93616.44
2023-02-22T18:53:03.860Z,93602.50
2023-02-22T18:58:07.029Z,93595.78
2023-02-22T19:03:10.607Z,93597.34
2023-02-22T19:08:14.149Z,93607.91
2023-02-22T19:13:19.196Z,93596.59
2023-02-22T19:18:24.120Z,93603.84
2023-02-22T19:23:28.626Z,93601.53
2023-02-22T19:28:34.659Z,93602.25
2023-02-22T19:33:38.675Z,93598.28
2023-02-22T19:38:43.007Z,93589.22
2023-02-22T19:43:47.606Z,93599.56
2023-02-22T19:48:53.167Z,93606.28
2023-02-22T19:54:02.754Z,93615.28
2023-02-22T19:59:14.626Z,93616.56
2023-02-22T20:04:21.921Z,93622.41
2023-02-22T20:09:40.478Z,93615.63
2023-02-22T20:14:45.204Z,93613.16
2023-02-22T20:19:49.111Z,93615.41
2023-02-22T20:24:52.765Z,93618.03
2023-02-22T20:29:56.012Z,93619.13
2023-02-22T20:34:59.868Z,93610.28
2023-02-22T20:40:04.906Z,93612.00
2023-02-22T20:45:11.025Z,93619.38
2023-02-22T20:50:15.298Z,93614.09
2023-02-22T20:55:19.301Z,93618.34
2023-02-22T21:00:23.819Z,93613.13
2023-02-22T21:05:27.632Z,93603.91
2023-02-22T21:10:30.918Z,93602.75
2023-02-22T21:15:40.201Z,93612.34
2023-02-22T21:20:44.447Z,93620.06
2023-02-22T21:25:54.257Z,93623.38
2023-02-22T21:31:05.149Z,93621.91
2023-02-22T21:36:14.594Z,93614.66
2023-02-22T21:41:18.052Z,93612.59
2023-02-22T21:46:22.923Z,93610.22
2023-02-22T21:51:32.698Z,93604.63
2023-02-22T21:56:40.024Z,93616.84
2023-02-22T22:01:48.509Z,93614.59
2023-02-22T22:06:54.128Z,93613.19
2023-02-22T22:12:06.446Z,93612.06
2023-02-22T22:17:09.837Z,93605.34
2023-02-22T22:22:13.375Z,93603.94
2023-02-22T22:27:16.933Z,93596.06
2023-02-22T22:32:21.232Z,93598.84
2023-02-22T22:37:24.386Z,93590.97
2023-02-22T22:42:27.622Z,93597.69
2023-02-22T22:47:31.185Z,93592.66
2023-02-22T22:52:37.827Z,93592.31
2023-02-22T22:57:41.955Z,93592.03
2023-02-22T23:02:49.026Z,93587.72
2023-02-22T23:07:53.454Z,93573.13
2023-02-22T23:12:57.245Z,93573.63
2023-02-22T23:18:00.374Z,93570.03
2023-02-22T23:23:03.805Z,93559.22
2023-02-22T23:28:14.869Z,93555.34
2023-02-22T23:33:18.698Z,93554.81
2023-02-22T23:38:21.881Z,93550.44
2023-02-22T23:43:25.869Z,93556.81
2023-02-22T23:48:30.361Z,93556.00
2023-02-22T23:53:33.860Z,93545.41
2023-02-22T23:58:38.451Z,93544.81
